sensor_id;sensor_type;location;lat;lon;timestamp;temperature;humidity
40289;DHT22;28991;52.028;5.526;2022-12-07T00:02:04;18.30;57.80
40289;DHT22;28991;52.028;5.526;2022-12-07T00:04:30;18.20;56.80
40289;DHT22;28991;52.028;5.526;2022-12-07T00:06:55;16.90;56.60
40289;DHT22;28991;52.028;5.526;2022-12-07T00:09:21;18.70;58.00
40289;DHT22;28991;52.028;5.526;2022-12-07T00:11:48;18.00;56.20
40289;DHT22;28991;52.028;5.526;2022-12-07T00:14:14;17.50;54.60
40289;DHT22;28991;52.028;5.526;2022-12-07T00:16:40;17.30;57.10
40289;DHT22;28991;52.028;5.526;2022-12-07T00:19:06;17.50;55.00
40289;DHT22;28991;52.028;5.526;2022-12-07T00:21:33;17.80;55.50
40289;DHT22;28991;52.028;5.526;2022-12-07T00:23:59;17.50;53.60
40289;DHT22;28991;52.028;5.526;2022-12-07T00:26:26;18.30;54.50
40289;DHT22;28991;52.028;5.526;2022-12-07T00:28:53;17.90;56.90
40289;DHT22;28991;52.028;5.526;2022-12-07T00:31:19;18.40;57.20
40289;DHT22;28991;52.028;5.526;2022-12-07T00:33:45;16.50;55.00
40289;DHT22;28991;52.028;5.526;2022-12-07T00:36:12;17.50;56.40
40289;DHT22;28991;52.028;5.526;2022-12-07T00:38:38;18.00;56.80
40289;DHT22;28991;52.028;5.526;2022-12-07T00:41:05;17.40;55.70
40289;DHT22;28991;52.028;5.526;2022-12-07T00:43:31;17.20;55.40
40289;DHT22;28991;52.028;5.526;2022-12-07T00:45:56;17.30;54.90
40289;DHT22;28991;52.028;5.526;2022-12-07T00:48:22;17.70;55.80
40289;DHT22;28991;52.028;5.526;2022-12-07T00:50:48;17.70;56.10
40289;DHT22;28991;52.028;5.526;2022-12-07T00:53:13;17.80;55.60
40289;DHT22;28991;52.028;5.526;2022-12-07T00:55:39;17.80;55.90
40289;DHT22;28991;52.028;5.526;2022-12-07T00:58:05;18.10;54.80
40289;DHT22;28991;52.028;5.526;2022-12-07T01:00:30;17.60;54.90
40289;DHT22;28991;52.028;5.526;2022-12-07T01:02:56;18.20;55.50
40289;DHT22;28991;52.028;5.526;2022-12-07T01:05:21;16.70;56.00
40289;DHT22;28991;52.028;5.526;2022-12-07T01:07:47;17.70;56.20
40289;DHT22;28991;52.028;5.526;2022-12-07T01:10:13;18.20;56.20
40289;DHT22;28991;52.028;5.526;2022-12-07T01:12:39;17.90;54.80
40289;DHT22;28991;52.028;5.526;2022-12-07T01:15:05;17.80;55.10
40289;DHT22;28991;52.028;5.526;2022-12-07T01:17:30;17.50;54.60
40289;DHT22;28991;52.028;5.526;2022-12-07T01:19:56;17.90;55.50
40289;DHT22;28991;52.028;5.526;2022-12-07T01:22:22;17.80;54.30
40289;DHT22;28991;52.028;5.526;2022-12-07T01:24:47;17.70;54.00
40289;DHT22;28991;52.028;5.526;2022-12-07T01:27:13;18.20;55.10
40289;DHT22;28991;52.028;5.526;2022-12-07T01:29:39;17.50;55.70
40289;DHT22;28991;52.028;5.526;2022-12-07T01:32:04;18.20;56.60
40289;DHT22;28991;52.028;5.526;2022-12-07T01:34:30;18.30;57.00
40289;DHT22;28991;52.028;5.526;2022-12-07T01:36:55;17.90;55.40
40289;DHT22;28991;52.028;5.526;2022-12-07T01:39:21;17.10;53.60
40289;DHT22;28991;52.028;5.526;2022-12-07T01:41:47;18.00;55.20
40289;DHT22;28991;52.028;5.526;2022-12-07T01:44:14;17.80;55.10
40289;DHT22;28991;52.028;5.526;2022-12-07T01:46:41;18.80;56.50
40289;DHT22;28991;52.028;5.526;2022-12-07T01:49:08;17.90;56.30
40289;DHT22;28991;52.028;5.526;2022-12-07T01:51:35;17.80;56.50
40289;DHT22;28991;52.028;5.526;2022-12-07T01:54:02;18.50;55.10
40289;DHT22;28991;52.028;5.526;2022-12-07T01:56:28;17.40;56.40
40289;DHT22;28991;52.028;5.526;2022-12-07T01:58:54;18.40;55.70
40289;DHT22;28991;52.028;5.526;2022-12-07T02:01:20;17.50;55.10
40289;DHT22;28991;52.028;5.526;2022-12-07T02:03:46;17.80;55.50
40289;DHT22;28991;52.028;5.526;2022-12-07T02:06:13;17.60;55.20
40289;DHT22;28991;52.028;5.526;2022-12-07T02:08:40;18.00;55.00
40289;DHT22;28991;52.028;5.526;2022-12-07T02:11:06;18.30;55.80
40289;DHT22;28991;52.028;5.526;2022-12-07T02:13:33;18.50;55.40
40289;DHT22;28991;52.028;5.526;2022-12-07T02:21:11;17.90;52.30
40289;DHT22;28991;52.028;5.526;2022-12-07T02:23:45;17.10;52.40
40289;DHT22;28991;52.028;5.526;2022-12-07T02:26:28;17.70;53.90
40289;DHT22;28991;52.028;5.526;2022-12-07T02:31:22;17.70;53.80
40289;DHT22;28991;52.028;5.526;2022-12-07T02:33:55;18.30;53.50
40289;DHT22;28991;52.028;5.526;2022-12-07T02:36:25;17.80;52.50
40289;DHT22;28991;52.028;5.526;2022-12-07T02:39:00;18.40;53.50
40289;DHT22;28991;52.028;5.526;2022-12-07T02:41:30;17.40;52.00
40289;DHT22;28991;52.028;5.526;2022-12-07T02:43:59;17.60;53.50
40289;DHT22;28991;52.028;5.526;2022-12-07T02:46:27;17.40;53.90
40289;DHT22;28991;52.028;5.526;2022-12-07T02:48:54;18.30;54.10
40289;DHT22;28991;52.028;5.526;2022-12-07T02:51:21;17.70;55.50
40289;DHT22;28991;52.028;5.526;2022-12-07T02:53:46;17.40;54.40
40289;DHT22;28991;52.028;5.526;2022-12-07T02:56:36;17.40;53.10
40289;DHT22;28991;52.028;5.526;2022-12-07T03:01:46;17.90;55.40
40289;DHT22;28991;52.028;5.526;2022-12-07T03:07:00;17.60;55.80
40289;DHT22;28991;52.028;5.526;2022-12-07T03:09:33;18.00;56.70
40289;DHT22;28991;52.028;5.526;2022-12-07T03:12:06;16.20;54.20
40289;DHT22;28991;52.028;5.526;2022-12-07T03:14:35;18.30;56.40
40289;DHT22;28991;52.028;5.526;2022-12-07T03:17:07;17.70;56.00
40289;DHT22;28991;52.028;5.526;2022-12-07T03:19:34;17.90;55.30
40289;DHT22;28991;52.028;5.526;2022-12-07T03:22:02;18.10;56.70
40289;DHT22;28991;52.028;5.526;2022-12-07T03:24:31;17.70;56.00
40289;DHT22;28991;52.028;5.526;2022-12-07T03:27:03;16.90;55.50
40289;DHT22;28991;52.028;5.526;2022-12-07T03:29:31;17.70;55.40
40289;DHT22;28991;52.028;5.526;2022-12-07T03:32:01;17.50;53.50
40289;DHT22;28991;52.028;5.526;2022-12-07T03:41:47;17.60;57.50
40289;DHT22;28991;52.028;5.526;2022-12-07T03:44:12;17.50;56.10
40289;DHT22;28991;52.028;5.526;2022-12-07T03:46:51;17.40;56.40
40289;DHT22;28991;52.028;5.526;2022-12-07T03:51:57;18.20;57.70
40289;DHT22;28991;52.028;5.526;2022-12-07T03:54:33;17.60;56.90
40289;DHT22;28991;52.028;5.526;2022-12-07T03:57:01;17.70;56.50
40289;DHT22;28991;52.028;5.526;2022-12-07T03:59:26;17.80;57.70
40289;DHT22;28991;52.028;5.526;2022-12-07T04:01:54;18.30;57.50
40289;DHT22;28991;52.028;5.526;2022-12-07T04:04:20;18.20;57.40
40289;DHT22;28991;52.028;5.526;2022-12-07T04:06:45;18.50;57.80
40289;DHT22;28991;52.028;5.526;2022-12-07T04:09:11;17.50;56.80
40289;DHT22;28991;52.028;5.526;2022-12-07T04:11:36;17.20;56.60
40289;DHT22;28991;52.028;5.526;2022-12-07T04:14:02;18.30;57.00
40289;DHT22;28991;52.028;5.526;2022-12-07T04:16:46;18.00;55.10
40289;DHT22;28991;52.028;5.526;2022-12-07T04:19:12;17.60;55.40
40289;DHT22;28991;52.028;5.526;2022-12-07T04:21:38;17.70;53.60
40289;DHT22;28991;52.028;5.526;2022-12-07T04:24:04;18.50;54.30
40289;DHT22;28991;52.028;5.526;2022-12-07T04:26:29;18.20;54.70
40289;DHT22;28991;52.028;5.526;2022-12-07T04:28:58;17.60;52.70
40289;DHT22;28991;52.028;5.526;2022-12-07T04:31:23;18.20;53.20
40289;DHT22;28991;52.028;5.526;2022-12-07T04:33:49;17.50;53.80
40289;DHT22;28991;52.028;5.526;2022-12-07T04:36:14;17.30;54.10
40289;DHT22;28991;52.028;5.526;2022-12-07T04:38:40;18.20;55.10
40289;DHT22;28991;52.028;5.526;2022-12-07T04:41:06;18.40;56.20
40289;DHT22;28991;52.028;5.526;2022-12-07T04:43:31;16.90;55.60
40289;DHT22;28991;52.028;5.526;2022-12-07T04:45:57;17.90;57.60
40289;DHT22;28991;52.028;5.526;2022-12-07T04:48:23;17.20;54.80
40289;DHT22;28991;52.028;5.526;2022-12-07T04:50:48;18.20;54.60
40289;DHT22;28991;52.028;5.526;2022-12-07T04:53:16;18.10;53.10
40289;DHT22;28991;52.028;5.526;2022-12-07T04:55:43;17.90;55.00
40289;DHT22;28991;52.028;5.526;2022-12-07T04:58:08;18.60;53.20
40289;DHT22;28991;52.028;5.526;2022-12-07T05:00:34;17.40;54.80
40289;DHT22;28991;52.028;5.526;2022-12-07T05:02:59;18.50;55.30
40289;DHT22;28991;52.028;5.526;2022-12-07T05:05:25;16.80;54.60
40289;DHT22;28991;52.028;5.526;2022-12-07T05:07:51;17.20;52.20
40289;DHT22;28991;52.028;5.526;2022-12-07T05:10:16;18.20;52.90
40289;DHT22;28991;52.028;5.526;2022-12-07T05:12:42;17.50;52.30
40289;DHT22;28991;52.028;5.526;2022-12-07T05:15:08;17.30;52.50
40289;DHT22;28991;52.028;5.526;2022-12-07T05:17:33;18.20;52.40
40289;DHT22;28991;52.028;5.526;2022-12-07T05:19:59;18.70;52.70
40289;DHT22;28991;52.028;5.526;2022-12-07T05:22:24;17.60;52.40
40289;DHT22;28991;52.028;5.526;2022-12-07T05:24:53;17.50;52.20
40289;DHT22;28991;52.028;5.526;2022-12-07T05:27:19;18.50;52.60
40289;DHT22;28991;52.028;5.526;2022-12-07T05:29:44;17.90;52.60
40289;DHT22;28991;52.028;5.526;2022-12-07T05:32:10;17.10;52.30
40289;DHT22;28991;52.028;5.526;2022-12-07T05:34:35;16.50;51.70
40289;DHT22;28991;52.028;5.526;2022-12-07T05:37:01;17.20;52.10
40289;DHT22;28991;52.028;5.526;2022-12-07T05:39:26;17.80;52.50
40289;DHT22;28991;52.028;5.526;2022-12-07T05:41:52;17.70;52.90
40289;DHT22;28991;52.028;5.526;2022-12-07T05:44:36;18.30;53.90
40289;DHT22;28991;52.028;5.526;2022-12-07T05:47:02;17.80;53.10
40289;DHT22;28991;52.028;5.526;2022-12-07T05:49:27;17.00;52.40
40289;DHT22;28991;52.028;5.526;2022-12-07T05:51:53;16.80;53.80
40289;DHT22;28991;52.028;5.526;2022-12-07T05:54:18;17.40;53.60
40289;DHT22;28991;52.028;5.526;2022-12-07T05:56:44;17.70;54.80
40289;DHT22;28991;52.028;5.526;2022-12-07T05:59:09;17.30;53.70
40289;DHT22;28991;52.028;5.526;2022-12-07T06:01:53;17.60;54.90
40289;DHT22;28991;52.028;5.526;2022-12-07T06:04:19;16.90;53.90
40289;DHT22;28991;52.028;5.526;2022-12-07T06:06:45;17.90;53.30
40289;DHT22;28991;52.028;5.526;2022-12-07T06:09:11;17.60;53.70
40289;DHT22;28991;52.028;5.526;2022-12-07T06:11:38;17.60;54.90
40289;DHT22;28991;52.028;5.526;2022-12-07T06:14:21;18.00;54.30
40289;DHT22;28991;52.028;5.526;2022-12-07T06:16:47;18.40;52.60
40289;DHT22;28991;52.028;5.526;2022-12-07T06:19:13;18.40;50.20
40289;DHT22;28991;52.028;5.526;2022-12-07T06:21:38;16.90;48.90
40289;DHT22;28991;52.028;5.526;2022-12-07T06:24:04;17.90;49.30
40289;DHT22;28991;52.028;5.526;2022-12-07T06:26:30;18.50;48.90
40289;DHT22;28991;52.028;5.526;2022-12-07T06:28:55;17.90;48.60
40289;DHT22;28991;52.028;5.526;2022-12-07T06:31:21;17.20;48.50
40289;DHT22;28991;52.028;5.526;2022-12-07T06:33:47;19.40;49.30
40289;DHT22;28991;52.028;5.526;2022-12-07T06:36:13;18.00;47.00
40289;DHT22;28991;52.028;5.526;2022-12-07T06:38:38;18.10;47.60
40289;DHT22;28991;52.028;5.526;2022-12-07T06:41:04;18.00;47.70
40289;DHT22;28991;52.028;5.526;2022-12-07T06:43:29;17.80;46.90
40289;DHT22;28991;52.028;5.526;2022-12-07T06:45:55;19.00;47.80
40289;DHT22;28991;52.028;5.526;2022-12-07T06:48:20;19.60;48.00
40289;DHT22;28991;52.028;5.526;2022-12-07T06:50:46;17.70;47.20
40289;DHT22;28991;52.028;5.526;2022-12-07T06:53:12;19.10;47.50
40289;DHT22;28991;52.028;5.526;2022-12-07T06:55:38;17.60;46.50
40289;DHT22;28991;52.028;5.526;2022-12-07T06:58:03;18.10;44.80
40289;DHT22;28991;52.028;5.526;2022-12-07T07:00:29;18.50;44.60
40289;DHT22;28991;52.028;5.526;2022-12-07T07:02:55;16.80;43.60
40289;DHT22;28991;52.028;5.526;2022-12-07T07:05:20;18.00;44.30
40289;DHT22;28991;52.028;5.526;2022-12-07T07:07:49;18.20;44.00
40289;DHT22;28991;52.028;5.526;2022-12-07T07:10:15;18.40;45.40
40289;DHT22;28991;52.028;5.526;2022-12-07T07:12:40;18.50;46.10
40289;DHT22;28991;52.028;5.526;2022-12-07T07:15:06;18.70;45.40
40289;DHT22;28991;52.028;5.526;2022-12-07T07:17:31;18.20;43.60
40289;DHT22;28991;52.028;5.526;2022-12-07T07:19:57;18.00;43.20
40289;DHT22;28991;52.028;5.526;2022-12-07T07:22:23;19.00;43.70
40289;DHT22;28991;52.028;5.526;2022-12-07T07:24:48;17.80;43.00
40289;DHT22;28991;52.028;5.526;2022-12-07T07:27:13;18.40;43.40
40289;DHT22;28991;52.028;5.526;2022-12-07T07:29:39;18.40;42.60
40289;DHT22;28991;52.028;5.526;2022-12-07T07:32:04;18.50;43.00
40289;DHT22;28991;52.028;5.526;2022-12-07T07:34:30;18.40;42.70
40289;DHT22;28991;52.028;5.526;2022-12-07T07:36:55;18.60;42.60
40289;DHT22;28991;52.028;5.526;2022-12-07T07:39:21;18.40;42.40
40289;DHT22;28991;52.028;5.526;2022-12-07T07:41:46;18.60;42.30
40289;DHT22;28991;52.028;5.526;2022-12-07T07:44:12;18.50;42.10
40289;DHT22;28991;52.028;5.526;2022-12-07T07:46:37;18.60;42.10
40289;DHT22;28991;52.028;5.526;2022-12-07T07:49:03;18.60;41.80
40289;DHT22;28991;52.028;5.526;2022-12-07T07:51:31;18.70;41.90
40289;DHT22;28991;52.028;5.526;2022-12-07T07:53:57;18.40;41.30
40289;DHT22;28991;52.028;5.526;2022-12-07T07:56:22;18.60;41.80
40289;DHT22;28991;52.028;5.526;2022-12-07T07:58:51;18.80;42.10
40289;DHT22;28991;52.028;5.526;2022-12-07T08:01:16;18.90;41.80
40289;DHT22;28991;52.028;5.526;2022-12-07T08:03:45;18.60;41.30
40289;DHT22;28991;52.028;5.526;2022-12-07T08:06:11;21.00;42.90
40289;DHT22;28991;52.028;5.526;2022-12-07T08:08:37;18.70;41.80
40289;DHT22;28991;52.028;5.526;2022-12-07T08:11:05;19.80;42.40
40289;DHT22;28991;52.028;5.526;2022-12-07T08:13:31;18.80;42.30
40289;DHT22;28991;52.028;5.526;2022-12-07T08:15:56;18.80;42.10
40289;DHT22;28991;52.028;5.526;2022-12-07T08:18:22;18.90;42.20
40289;DHT22;28991;52.028;5.526;2022-12-07T08:20:48;18.60;42.30
40289;DHT22;28991;52.028;5.526;2022-12-07T08:23:13;19.10;42.60
40289;DHT22;28991;52.028;5.526;2022-12-07T08:25:39;18.80;43.00
40289;DHT22;28991;52.028;5.526;2022-12-07T08:28:04;19.30;43.30
40289;DHT22;28991;52.028;5.526;2022-12-07T08:30:30;19.30;44.20
40289;DHT22;28991;52.028;5.526;2022-12-07T08:32:56;19.40;45.80
40289;DHT22;28991;52.028;5.526;2022-12-07T08:35:21;19.50;47.70
40289;DHT22;28991;52.028;5.526;2022-12-07T08:37:47;19.50;49.70
40289;DHT22;28991;52.028;5.526;2022-12-07T08:42:44;19.20;41.70
40289;DHT22;28991;52.028;5.526;2022-12-07T08:45:10;19.60;42.30
40289;DHT22;28991;52.028;5.526;2022-12-07T08:47:37;19.30;42.70
40289;DHT22;28991;52.028;5.526;2022-12-07T08:50:04;19.30;42.40
40289;DHT22;28991;52.028;5.526;2022-12-07T08:52:32;19.40;42.10
40289;DHT22;28991;52.028;5.526;2022-12-07T08:54:58;19.50;42.20
40289;DHT22;28991;52.028;5.526;2022-12-07T08:57:25;19.50;42.40
40289;DHT22;28991;52.028;5.526;2022-12-07T08:59:51;19.50;42.40
40289;DHT22;28991;52.028;5.526;2022-12-07T09:02:17;19.50;42.40
40289;DHT22;28991;52.028;5.526;2022-12-07T09:04:42;19.50;42.60
40289;DHT22;28991;52.028;5.526;2022-12-07T09:07:08;19.60;42.90
40289;DHT22;28991;52.028;5.526;2022-12-07T09:09:34;19.60;42.70
40289;DHT22;28991;52.028;5.526;2022-12-07T09:11:59;19.60;42.30
40289;DHT22;28991;52.028;5.526;2022-12-07T09:14:25;20.00;42.20
40289;DHT22;28991;52.028;5.526;2022-12-07T09:16:50;19.60;42.80
40289;DHT22;28991;52.028;5.526;2022-12-07T09:19:16;19.60;41.60
40289;DHT22;28991;52.028;5.526;2022-12-07T09:21:41;20.10;42.90
40289;DHT22;28991;52.028;5.526;2022-12-07T09:24:07;19.60;42.10
40289;DHT22;28991;52.028;5.526;2022-12-07T09:26:33;19.60;42.40
40289;DHT22;28991;52.028;5.526;2022-12-07T09:28:58;19.60;42.80
40289;DHT22;28991;52.028;5.526;2022-12-07T09:31:24;19.60;42.30
40289;DHT22;28991;52.028;5.526;2022-12-07T09:33:59;19.60;42.40
40289;DHT22;28991;52.028;5.526;2022-12-07T09:36:25;19.60;42.60
40289;DHT22;28991;52.028;5.526;2022-12-07T09:38:51;19.70;42.50
40289;DHT22;28991;52.028;5.526;2022-12-07T09:41:17;19.60;42.30
40289;DHT22;28991;52.028;5.526;2022-12-07T09:43:42;19.60;42.40
40289;DHT22;28991;52.028;5.526;2022-12-07T09:46:09;19.60;42.50
40289;DHT22;28991;52.028;5.526;2022-12-07T09:48:38;19.70;41.90
40289;DHT22;28991;52.028;5.526;2022-12-07T09:51:14;19.60;41.80
40289;DHT22;28991;52.028;5.526;2022-12-07T09:53:41;19.70;42.20
40289;DHT22;28991;52.028;5.526;2022-12-07T09:56:08;19.70;42.90
40289;DHT22;28991;52.028;5.526;2022-12-07T09:58:37;19.70;42.30
40289;DHT22;28991;52.028;5.526;2022-12-07T10:03:36;19.70;42.60
40289;DHT22;28991;52.028;5.526;2022-12-07T10:06:03;19.70;42.30
40289;DHT22;28991;52.028;5.526;2022-12-07T10:08:29;19.70;42.50
40289;DHT22;28991;52.028;5.526;2022-12-07T10:10:55;19.70;42.20
40289;DHT22;28991;52.028;5.526;2022-12-07T10:13:22;19.70;42.50
40289;DHT22;28991;52.028;5.526;2022-12-07T10:15:58;19.70;42.80
40289;DHT22;28991;52.028;5.526;2022-12-07T10:21:08;19.70;42.70
40289;DHT22;28991;52.028;5.526;2022-12-07T10:23:35;19.70;42.90
40289;DHT22;28991;52.028;5.526;2022-12-07T10:28:46;19.60;42.20
40289;DHT22;28991;52.028;5.526;2022-12-07T10:31:16;19.60;42.90
40289;DHT22;28991;52.028;5.526;2022-12-07T10:34:00;19.70;42.70
40289;DHT22;28991;52.028;5.526;2022-12-07T10:36:29;19.70;42.30
40289;DHT22;28991;52.028;5.526;2022-12-07T10:39:10;19.80;42.70
40289;DHT22;28991;52.028;5.526;2022-12-07T10:41:58;19.80;42.70
40289;DHT22;28991;52.028;5.526;2022-12-07T10:44:29;19.70;42.70
40289;DHT22;28991;52.028;5.526;2022-12-07T10:49:47;19.80;42.70
40289;DHT22;28991;52.028;5.526;2022-12-07T10:52:24;19.80;41.90
40289;DHT22;28991;52.028;5.526;2022-12-07T10:55:05;19.80;42.70
40289;DHT22;28991;52.028;5.526;2022-12-07T10:57:55;19.70;42.70
40289;DHT22;28991;52.028;5.526;2022-12-07T11:00:25;20.00;42.40
40289;DHT22;28991;52.028;5.526;2022-12-07T11:20:52;20.20;42.50
40289;DHT22;28991;52.028;5.526;2022-12-07T11:28:32;20.10;42.50
40289;DHT22;28991;52.028;5.526;2022-12-07T11:39:01;20.00;42.50
40289;DHT22;28991;52.028;5.526;2022-12-07T11:41:34;20.00;42.60
40289;DHT22;28991;52.028;5.526;2022-12-07T11:44:03;19.90;42.50
40289;DHT22;28991;52.028;5.526;2022-12-07T11:46:43;20.00;42.70
40289;DHT22;28991;52.028;5.526;2022-12-07T11:49:13;19.90;42.70
40289;DHT22;28991;52.028;5.526;2022-12-07T11:51:40;19.80;42.70
40289;DHT22;28991;52.028;5.526;2022-12-07T11:54:12;19.90;42.80
40289;DHT22;28991;52.028;5.526;2022-12-07T11:56:39;19.80;42.80
40289;DHT22;28991;52.028;5.526;2022-12-07T12:01:47;19.80;42.70
40289;DHT22;28991;52.028;5.526;2022-12-07T12:04:19;19.80;42.80
40289;DHT22;28991;52.028;5.526;2022-12-07T12:06:47;19.80;42.60
40289;DHT22;28991;52.028;5.526;2022-12-07T12:16:51;19.70;42.70
40289;DHT22;28991;52.028;5.526;2022-12-07T12:22:13;19.70;42.80
40289;DHT22;28991;52.028;5.526;2022-12-07T12:24:40;19.70;42.90
40289;DHT22;28991;52.028;5.526;2022-12-07T12:27:07;19.70;42.70
40289;DHT22;28991;52.028;5.526;2022-12-07T12:29:35;20.60;43.10
40289;DHT22;28991;52.028;5.526;2022-12-07T12:32:06;19.70;42.60
40289;DHT22;28991;52.028;5.526;2022-12-07T12:42:43;19.80;42.70
40289;DHT22;28991;52.028;5.526;2022-12-07T12:47:54;19.80;42.80
40289;DHT22;28991;52.028;5.526;2022-12-07T12:50:20;19.90;42.80
40289;DHT22;28991;52.028;5.526;2022-12-07T12:52:49;19.80;42.70
40289;DHT22;28991;52.028;5.526;2022-12-07T12:55:16;19.90;42.70
40289;DHT22;28991;52.028;5.526;2022-12-07T12:57:47;19.80;42.70
40289;DHT22;28991;52.028;5.526;2022-12-07T13:00:20;19.80;42.70
40289;DHT22;28991;52.028;5.526;2022-12-07T13:02:50;19.90;42.70
40289;DHT22;28991;52.028;5.526;2022-12-07T13:05:23;19.90;42.50
40289;DHT22;28991;52.028;5.526;2022-12-07T13:07:57;19.90;42.40
40289;DHT22;28991;52.028;5.526;2022-12-07T13:15:50;19.90;42.40
40289;DHT22;28991;52.028;5.526;2022-12-07T13:21:00;19.90;42.20
40289;DHT22;28991;52.028;5.526;2022-12-07T13:23:27;19.90;42.40
40289;DHT22;28991;52.028;5.526;2022-12-07T13:25:55;19.80;42.40
40289;DHT22;28991;52.028;5.526;2022-12-07T13:28:21;20.20;42.50
40289;DHT22;28991;52.028;5.526;2022-12-07T13:33:22;20.00;42.20
40289;DHT22;28991;52.028;5.526;2022-12-07T13:35:48;20.10;42.30
40289;DHT22;28991;52.028;5.526;2022-12-07T13:38:23;20.10;42.10
40289;DHT22;28991;52.028;5.526;2022-12-07T13:43:50;20.00;42.30
40289;DHT22;28991;52.028;5.526;2022-12-07T13:46:17;20.00;42.40
40289;DHT22;28991;52.028;5.526;2022-12-07T13:48:47;20.00;42.30
40289;DHT22;28991;52.028;5.526;2022-12-07T13:51:23;20.00;42.20
40289;DHT22;28991;52.028;5.526;2022-12-07T13:53:51;20.00;42.20
40289;DHT22;28991;52.028;5.526;2022-12-07T13:56:17;20.00;42.00
40289;DHT22;28991;52.028;5.526;2022-12-07T13:58:42;20.00;42.10
40289;DHT22;28991;52.028;5.526;2022-12-07T14:01:08;20.00;41.90
40289;DHT22;28991;52.028;5.526;2022-12-07T14:03:34;20.00;41.90
40289;DHT22;28991;52.028;5.526;2022-12-07T14:08:39;20.10;42.00
40289;DHT22;28991;52.028;5.526;2022-12-07T14:11:05;20.00;41.90
40289;DHT22;28991;52.028;5.526;2022-12-07T14:13:50;20.00;41.80
40289;DHT22;28991;52.028;5.526;2022-12-07T14:16:30;20.00;41.70
40289;DHT22;28991;52.028;5.526;2022-12-07T14:18:57;19.90;41.50
40289;DHT22;28991;52.028;5.526;2022-12-07T14:21:26;20.00;41.90
40289;DHT22;28991;52.028;5.526;2022-12-07T14:24:04;19.90;41.70
40289;DHT22;28991;52.028;5.526;2022-12-07T14:26:32;19.90;41.60
40289;DHT22;28991;52.028;5.526;2022-12-07T14:31:42;19.90;41.50
40289;DHT22;28991;52.028;5.526;2022-12-07T14:34:11;20.00;41.50
40289;DHT22;28991;52.028;5.526;2022-12-07T14:36:37;19.90;41.50
40289;DHT22;28991;52.028;5.526;2022-12-07T14:39:03;20.20;41.40
40289;DHT22;28991;52.028;5.526;2022-12-07T14:41:28;19.90;40.80
40289;DHT22;28991;52.028;5.526;2022-12-07T14:44:12;19.90;41.40
40289;DHT22;28991;52.028;5.526;2022-12-07T14:46:38;20.10;41.50
40289;DHT22;28991;52.028;5.526;2022-12-07T14:49:03;19.80;41.40
40289;DHT22;28991;52.028;5.526;2022-12-07T14:51:29;19.80;41.40
40289;DHT22;28991;52.028;5.526;2022-12-07T14:53:54;19.80;41.50
40289;DHT22;28991;52.028;5.526;2022-12-07T14:56:20;19.70;41.50
40289;DHT22;28991;52.028;5.526;2022-12-07T14:58:46;19.70;41.60
40289;DHT22;28991;52.028;5.526;2022-12-07T15:01:14;19.60;41.30
40289;DHT22;28991;52.028;5.526;2022-12-07T15:03:39;19.90;41.50
40289;DHT22;28991;52.028;5.526;2022-12-07T15:06:05;19.60;41.70
40289;DHT22;28991;52.028;5.526;2022-12-07T15:08:30;19.60;41.40
40289;DHT22;28991;52.028;5.526;2022-12-07T15:10:56;19.50;41.30
40289;DHT22;28991;52.028;5.526;2022-12-07T15:13:21;19.80;41.40
40289;DHT22;28991;52.028;5.526;2022-12-07T15:16:08;20.00;41.60
40289;DHT22;28991;52.028;5.526;2022-12-07T15:18:35;19.60;41.30
40289;DHT22;28991;52.028;5.526;2022-12-07T15:21:01;19.60;41.40
40289;DHT22;28991;52.028;5.526;2022-12-07T15:23:26;19.50;41.50
40289;DHT22;28991;52.028;5.526;2022-12-07T15:25:56;19.60;41.30
40289;DHT22;28991;52.028;5.526;2022-12-07T15:28:22;19.60;41.30
40289;DHT22;28991;52.028;5.526;2022-12-07T15:30:47;19.50;41.40
40289;DHT22;28991;52.028;5.526;2022-12-07T15:33:13;19.50;41.40
40289;DHT22;28991;52.028;5.526;2022-12-07T15:35:39;19.50;41.50
40289;DHT22;28991;52.028;5.526;2022-12-07T15:38:05;19.90;41.90
40289;DHT22;28991;52.028;5.526;2022-12-07T15:40:30;19.40;41.80
40289;DHT22;28991;52.028;5.526;2022-12-07T15:42:56;19.40;41.90
40289;DHT22;28991;52.028;5.526;2022-12-07T15:45:22;19.70;42.20
40289;DHT22;28991;52.028;5.526;2022-12-07T15:47:47;19.40;42.20
40289;DHT22;28991;52.028;5.526;2022-12-07T15:50:14;19.50;42.40
40289;DHT22;28991;52.028;5.526;2022-12-07T15:52:40;19.20;42.30
40289;DHT22;28991;52.028;5.526;2022-12-07T15:55:06;20.00;42.90
40289;DHT22;28991;52.028;5.526;2022-12-07T15:57:32;19.10;42.50
40289;DHT22;28991;52.028;5.526;2022-12-07T15:59:58;18.90;42.50
40289;DHT22;28991;52.028;5.526;2022-12-07T16:02:24;19.60;43.00
40289;DHT22;28991;52.028;5.526;2022-12-07T16:04:50;19.10;42.80
40289;DHT22;28991;52.028;5.526;2022-12-07T16:07:15;19.00;42.80
40289;DHT22;28991;52.028;5.526;2022-12-07T16:09:44;19.30;43.00
40289;DHT22;28991;52.028;5.526;2022-12-07T16:12:10;19.00;43.00
40289;DHT22;28991;52.028;5.526;2022-12-07T16:14:36;19.00;43.10
40289;DHT22;28991;52.028;5.526;2022-12-07T16:17:02;19.00;43.10
40289;DHT22;28991;52.028;5.526;2022-12-07T16:19:29;18.90;43.10
40289;DHT22;28991;52.028;5.526;2022-12-07T16:21:55;18.90;43.20
40289;DHT22;28991;52.028;5.526;2022-12-07T16:24:20;19.30;43.50
40289;DHT22;28991;52.028;5.526;2022-12-07T16:26:46;18.80;43.30
40289;DHT22;28991;52.028;5.526;2022-12-07T16:29:12;18.90;43.40
40289;DHT22;28991;52.028;5.526;2022-12-07T16:31:38;18.90;43.50
40289;DHT22;28991;52.028;5.526;2022-12-07T16:34:04;18.90;43.50
40289;DHT22;28991;52.028;5.526;2022-12-07T16:36:29;18.80;43.40
40289;DHT22;28991;52.028;5.526;2022-12-07T16:38:55;18.80;43.50
40289;DHT22;28991;52.028;5.526;2022-12-07T16:41:20;18.80;43.60
40289;DHT22;28991;52.028;5.526;2022-12-07T16:43:46;18.90;43.70
40289;DHT22;28991;52.028;5.526;2022-12-07T16:46:12;19.10;43.90
40289;DHT22;28991;52.028;5.526;2022-12-07T16:48:38;19.20;44.00
40289;DHT22;28991;52.028;5.526;2022-12-07T16:51:05;18.70;43.80
40289;DHT22;28991;52.028;5.526;2022-12-07T16:53:30;18.70;44.40
40289;DHT22;28991;52.028;5.526;2022-12-07T16:55:56;18.70;43.90
40289;DHT22;28991;52.028;5.526;2022-12-07T16:58:21;18.60;43.90
40289;DHT22;28991;52.028;5.526;2022-12-07T17:00:47;18.90;44.20
40289;DHT22;28991;52.028;5.526;2022-12-07T17:03:13;18.70;44.20
40289;DHT22;28991;52.028;5.526;2022-12-07T17:05:40;18.60;44.20
40289;DHT22;28991;52.028;5.526;2022-12-07T17:08:06;18.60;44.30
40289;DHT22;28991;52.028;5.526;2022-12-07T17:10:33;18.80;44.40
40289;DHT22;28991;52.028;5.526;2022-12-07T17:12:59;18.60;44.40
40289;DHT22;28991;52.028;5.526;2022-12-07T17:15:24;18.60;44.40
40289;DHT22;28991;52.028;5.526;2022-12-07T17:17:53;18.50;44.40
40289;DHT22;28991;52.028;5.526;2022-12-07T17:20:20;18.70;44.60
40289;DHT22;28991;52.028;5.526;2022-12-07T17:22:45;18.50;44.50